Excel, Alabama
Current Conditions -  °F | °C
As of 6:53 PM on Wednesday 22 Oct 2014 (Local Time) from KGZH Reporting Station
Clear Clear  
Wind Chill: 60°   Ceiling: Unl
Heat Index: 60°   Visibility: 10mi
Dew Point: 48°   Wind: 5mph
Humidity: 64%   Direction: 330°NNW
Pressure: 30.06"   Gusts: NA
Location:  31.43°N, 87.34°W
Report Text: KGZH 222353Z AUTO 33004KT 10SM CLR 16/09 A3006 RMK AO2 SLP178 T01560089 10256 20156 51007
Loading
Personal Weather Stations






























Interactive Weather Map
Tropical Storm Tracking
New forecast layout! Learn more

10-Day Weather Forecast

Advertisements
Track Severe Weather on mobile